createdAt,value
2023-05-07T00:02:24.174Z,96422.13
2023-05-07T00:04:53.050Z,96419.41
2023-05-07T00:07:22.016Z,96416.09
2023-05-07T00:09:50.737Z,96422.94
2023-05-07T00:12:19.120Z,96418.06
2023-05-07T00:14:48.308Z,96420.50
2023-05-07T00:17:17.991Z,96421.84
2023-05-07T00:19:48.067Z,96429.50
2023-05-07T00:22:16.500Z,96425.41
2023-05-07T00:24:46.316Z,96432.78
2023-05-07T00:27:14.661Z,96425.69
2023-05-07T00:29:43.984Z,96425.13
2023-05-07T00:32:12.438Z,96424.88
2023-05-07T00:34:43.135Z,96423.75
2023-05-07T00:37:12.994Z,96418.25
2023-05-07T00:39:41.352Z,96415.28
2023-05-07T00:42:10.572Z,96413.34
2023-05-07T00:44:38.901Z,96408.72
2023-05-07T00:47:08.482Z,96422.09
2023-05-07T00:49:41.061Z,96407.09
2023-05-07T00:52:13.600Z,96416.63
2023-05-07T00:54:43.371Z,96414.41
2023-05-07T00:57:12.857Z,96407.31
2023-05-07T00:59:41.803Z,96417.69
2023-05-07T01:02:11.473Z,96411.44
2023-05-07T01:04:39.937Z,96409.50
2023-05-07T01:07:11.491Z,96411.44
2023-05-07T01:09:41.025Z,96403.25
2023-05-07T01:12:10.576Z,96411.69
2023-05-07T01:14:39.602Z,96409.25
2023-05-07T01:17:09.295Z,96408.69
2023-05-07T01:19:38.951Z,96411.41
2023-05-07T01:22:11.531Z,96414.94
2023-05-07T01:24:54.062Z,96409.47
2023-05-07T01:27:23.235Z,96406.19
2023-05-07T01:29:53.996Z,96409.47
2023-05-07T01:32:29.564Z,96400.47
2023-05-07T01:35:00.777Z,96402.88
2023-05-07T01:37:30.542Z,96400.16
2023-05-07T01:40:00.595Z,96400.75
2023-05-07T01:42:29.383Z,96393.34
2023-05-07T01:44:58.323Z,96396.31
2023-05-07T01:47:27.478Z,96397.41
2023-05-07T01:49:57.030Z,96395.22
2023-05-07T01:52:26.583Z,96388.13
2023-05-07T01:54:55.541Z,96397.63
2023-05-07T01:57:25.882Z,96390.28
2023-05-07T01:59:54.627Z,96394.09
2023-05-07T02:02:23.168Z,96389.19
2023-05-07T02:04:52.958Z,96400.63
2023-05-07T02:07:22.602Z,96391.91
2023-05-07T02:09:52.309Z,96390.53
2023-05-07T02:12:22.045Z,96395.69
2023-05-07T02:14:51.983Z,96394.88
2023-05-07T02:17:21.703Z,96403.00
2023-05-07T02:19:50.424Z,96399.22
2023-05-07T02:22:18.812Z,96398.66
2023-05-07T02:24:48.029Z,96393.19
2023-05-07T02:27:16.863Z,96397.81
2023-05-07T02:29:46.696Z,96398.38
2023-05-07T02:32:17.413Z,96402.44
2023-05-07T02:34:45.736Z,96400.53
2023-05-07T02:37:14.471Z,96401.31
2023-05-07T02:39:42.872Z,96403.22
2023-05-07T02:42:11.968Z,96403.72
2023-05-07T02:44:40.353Z,96400.72
2023-05-07T02:47:10.602Z,96407.00
2023-05-07T02:49:41.444Z,96393.38
2023-05-07T02:52:11.110Z,96395.81
2023-05-07T02:54:40.114Z,96399.88
2023-05-07T02:57:08.483Z,96392.78
2023-05-07T02:59:37.433Z,96398.22
2023-05-07T03:02:06.483Z,96386.72
2023-05-07T03:04:34.952Z,96392.44
2023-05-07T03:07:04.832Z,96396.81
2023-05-07T03:09:33.656Z,96389.69
2023-05-07T03:12:02.676Z,96396.25
2023-05-07T03:14:31.672Z,96398.38
2023-05-07T03:17:00.503Z,96394.84
2023-05-07T03:19:28.886Z,96392.13
2023-05-07T03:21:58.184Z,96379.00
2023-05-07T03:24:27.859Z,96389.91
2023-05-07T03:26:57.164Z,96376.47
2023-05-07T03:29:25.645Z,96394.22
2023-05-07T03:31:55.114Z,96395.03
2023-05-07T03:34:23.964Z,96394.22
2023-05-07T03:36:54.107Z,96398.03
2023-05-07T03:39:25.353Z,96398.56
2023-05-07T03:41:55.117Z,96395.06
2023-05-07T03:44:24.348Z,96392.63
2023-05-07T03:46:54.025Z,96403.47
2023-05-07T03:49:22.913Z,96399.06
2023-05-07T03:51:51.723Z,96409.34
2023-05-07T03:54:21.466Z,96409.34
2023-05-07T03:56:49.840Z,96401.69
2023-05-07T03:59:20.146Z,96412.88
2023-05-07T04:01:50.707Z,96403.28
2023-05-07T04:04:23.617Z,96410.09
2023-05-07T04:06:52.573Z,96412.84
2023-05-07T04:09:22.048Z,96419.63
2023-05-07T04:11:50.592Z,96417.47
2023-05-07T04:14:20.670Z,96421.00
2023-05-07T04:16:49.104Z,96423.44
2023-05-07T04:19:18.092Z,96428.88
2023-05-07T04:21:48.814Z,96440.31
2023-05-07T04:24:17.212Z,96430.75
2023-05-07T04:26:47.096Z,96428.56
2023-05-07T04:29:16.221Z,96439.19
2023-05-07T04:31:46.635Z,96435.09
2023-05-07T04:34:16.270Z,96435.03
2023-05-07T04:36:44.814Z,96435.28
2023-05-07T04:39:15.964Z,96433.06
2023-05-07T04:41:47.128Z,96441.56
2023-05-07T04:44:15.650Z,96431.22
2023-05-07T04:46:47.086Z,96430.97
2023-05-07T04:49:15.483Z,96428.81
2023-05-07T04:51:45.051Z,96431.00
2023-05-07T04:54:14.282Z,96437.00
2023-05-07T04:56:43.360Z,96435.38
2023-05-07T04:59:12.324Z,96436.78
2023-05-07T05:01:41.562Z,96439.22
2023-05-07T05:04:12.215Z,96437.38
2023-05-07T05:06:41.984Z,96436.56
2023-05-07T05:09:12.520Z,96430.03
2023-05-07T05:11:43.189Z,96433.31
2023-05-07T05:14:11.588Z,96431.13
2023-05-07T05:16:40.025Z,96434.94
2023-05-07T05:19:08.961Z,96435.50
2023-05-07T05:21:41.576Z,96443.69
2023-05-07T05:24:11.939Z,96454.59
2023-05-07T05:26:41.107Z,96452.41
2023-05-07T05:29:10.012Z,96458.44
2023-05-07T05:31:42.789Z,96457.91
2023-05-07T05:34:11.810Z,96456.06
2023-05-07T05:36:41.832Z,96455.56
2023-05-07T05:39:11.829Z,96457.50
2023-05-07T05:41:40.247Z,96460.28
2023-05-07T05:44:10.507Z,96460.38
2023-05-07T05:46:39.912Z,96464.47
2023-05-07T05:49:08.692Z,96451.09
2023-05-07T05:51:37.881Z,96451.38
2023-05-07T05:54:07.916Z,96457.66
2023-05-07T05:56:39.261Z,96445.16
2023-05-07T05:59:07.818Z,96443.53
2023-05-07T06:01:37.224Z,96442.47
2023-05-07T06:04:06.786Z,96449.06
2023-05-07T06:06:36.824Z,96443.06
2023-05-07T06:09:05.683Z,96445.28
2023-05-07T06:11:42.479Z,96444.22
2023-05-07T06:14:12.320Z,96446.44
2023-05-07T06:16:41.758Z,96443.47
2023-05-07T06:19:10.321Z,96446.75
2023-05-07T06:21:41.140Z,96440.00
2023-05-07T06:24:10.347Z,96447.13
2023-05-07T06:26:42.015Z,96460.50
2023-05-07T06:29:10.860Z,96455.91
2023-05-07T06:31:42.087Z,96455.94
2023-05-07T06:34:15.134Z,96466.91
2023-05-07T06:36:44.244Z,96467.44
2023-05-07T06:39:21.484Z,96482.75
2023-05-07T06:41:51.478Z,96472.38
2023-05-07T06:44:28.092Z,96471.84
2023-05-07T06:47:09.464Z,96479.47
2023-05-07T06:49:40.650Z,96473.72
2023-05-07T06:52:08.992Z,96486.00
2023-05-07T06:54:39.021Z,96483.56
2023-05-07T06:57:09.102Z,96495.59
2023-05-07T06:59:38.422Z,96492.56
2023-05-07T07:02:06.748Z,96486.81
2023-05-07T07:04:36.436Z,96500.50
2023-05-07T07:07:08.329Z,96495.03
2023-05-07T07:09:38.121Z,96501.59
2023-05-07T07:12:09.341Z,96500.22
2023-05-07T07:14:41.489Z,96507.84
2023-05-07T07:17:09.873Z,96507.56
2023-05-07T07:19:40.092Z,96503.16
2023-05-07T07:22:08.674Z,96503.44
2023-05-07T07:24:37.361Z,96499.59
2023-05-07T07:27:10.310Z,96500.09
2023-05-07T07:29:38.760Z,96498.97
2023-05-07T07:32:07.590Z,96494.53
2023-05-07T07:34:36.016Z,96495.00
2023-05-07T07:37:07.537Z,96494.13
2023-05-07T07:39:38.823Z,96495.91
2023-05-07T07:42:10.828Z,96502.09
2023-05-07T07:44:40.638Z,96505.03
2023-05-07T07:47:13.134Z,96503.81
2023-05-07T07:49:42.847Z,96503.75
2023-05-07T07:52:12.403Z,96500.06
2023-05-07T07:54:41.418Z,96509.84
2023-05-07T07:57:12.892Z,96512.75
2023-05-07T07:59:43.720Z,96508.31
2023-05-07T08:02:13.972Z,96513.44
2023-05-07T08:07:31.384Z,96525.59
2023-05-07T08:09:59.744Z,96525.47
2023-05-07T08:12:30.106Z,96518.53
2023-05-07T08:14:58.520Z,96523.66
2023-05-07T08:17:28.131Z,96525.19
2023-05-07T08:19:58.368Z,96521.56
2023-05-07T08:22:26.782Z,96510.03
2023-05-07T08:24:57.088Z,96525.16
2023-05-07T08:27:25.458Z,96530.25
2023-05-07T08:29:56.225Z,96528.47
2023-05-07T08:32:25.241Z,96531.66
2023-05-07T08:34:55.269Z,96530.41
2023-05-07T08:37:23.956Z,96536.13
2023-05-07T08:39:52.933Z,96531.22
2023-05-07T08:42:25.841Z,96525.97
2023-05-07T08:45:01.533Z,96528.84
2023-05-07T08:47:36.227Z,96532.56
2023-05-07T08:50:08.008Z,96540.72
2023-05-07T08:52:37.510Z,96533.41
2023-05-07T08:55:08.669Z,96533.84
2023-05-07T08:57:40.021Z,96537.63
2023-05-07T09:00:14.329Z,96534.66
2023-05-07T09:02:44.274Z,96540.09
2023-05-07T09:05:14.462Z,96540.47
2023-05-07T09:07:43.058Z,96537.78
2023-05-07T09:10:14.349Z,96534.22
2023-05-07T09:12:44.280Z,96531.47
2023-05-07T09:15:17.959Z,96541.97
2023-05-07T09:17:46.679Z,96532.69
2023-05-07T09:20:16.361Z,96532.38
2023-05-07T09:22:45.285Z,96539.41
2023-05-07T09:25:18.154Z,96534.53
2023-05-07T09:27:47.307Z,96524.38
2023-05-07T09:30:17.620Z,96524.47
2023-05-07T09:32:47.111Z,96522.66
2023-05-07T09:35:22.629Z,96524.75
2023-05-07T09:37:57.188Z,96520.34
2023-05-07T09:40:28.398Z,96525.69
2023-05-07T09:43:10.574Z,96529.66
2023-05-07T09:45:44.497Z,96532.28
2023-05-07T09:48:17.925Z,96533.56
2023-05-07T09:50:51.669Z,96527.75
2023-05-07T09:53:24.735Z,96536.03
2023-05-07T09:55:55.643Z,96537.66
2023-05-07T09:58:25.823Z,96532.13
2023-05-07T10:00:58.203Z,96530.75
2023-05-07T10:03:30.501Z,96530.41
2023-05-07T10:06:07.174Z,96524.06
2023-05-07T10:08:37.813Z,96537.94
2023-05-07T10:11:08.961Z,96532.16
2023-05-07T10:13:38.919Z,96539.81
2023-05-07T10:16:11.611Z,96536.63
2023-05-07T10:18:49.373Z,96536.31
2023-05-07T10:21:25.209Z,96530.56
2023-05-07T10:24:00.847Z,96530.03
2023-05-07T10:26:33.128Z,96530.22
2023-05-07T10:29:05.930Z,96524.84
2023-05-07T10:31:51.444Z,96530.63
2023-05-07T10:34:24.768Z,96524.53
2023-05-07T10:36:54.904Z,96527.06
2023-05-07T10:39:24.900Z,96526.19
2023-05-07T10:41:55.026Z,96523.69
2023-05-07T10:44:30.399Z,96526.69
2023-05-07T10:47:10.793Z,96525.25
2023-05-07T10:50:14.164Z,96522.22
2023-05-07T10:52:45.068Z,96520.22
2023-05-07T10:55:26.302Z,96520.59
2023-05-07T10:58:32.017Z,96524.34
2023-05-07T11:01:14.269Z,96522.84
2023-05-07T11:04:16.514Z,96525.28
2023-05-07T11:07:34.045Z,96524.00
2023-05-07T11:10:14.307Z,96519.03
2023-05-07T11:12:57.286Z,96510.19
2023-05-07T11:15:37.596Z,96515.50
2023-05-07T11:18:15.006Z,96511.28
2023-05-07T11:20:59.034Z,96518.44
2023-05-07T11:24:01.545Z,96517.75
2023-05-07T11:26:50.778Z,96521.53
2023-05-07T11:29:23.728Z,96518.28
2023-05-07T11:31:58.806Z,96517.28
2023-05-07T11:34:33.416Z,96516.34
2023-05-07T11:37:04.589Z,96510.81
2023-05-07T11:39:44.493Z,96504.75
2023-05-07T11:42:27.613Z,96500.50
2023-05-07T11:44:56.808Z,96501.84
2023-05-07T11:47:26.231Z,96494.09
2023-05-07T11:49:56.234Z,96508.91
2023-05-07T11:52:26.473Z,96499.97
2023-05-07T11:54:56.822Z,96504.72
2023-05-07T11:57:26.515Z,96510.16
2023-05-07T11:59:55.558Z,96497.91
2023-05-07T12:02:26.400Z,96502.72
2023-05-07T12:04:55.885Z,96502.81
2023-05-07T12:07:28.066Z,96493.56
2023-05-07T12:09:57.350Z,96502.47
2023-05-07T12:12:25.754Z,96493.28
2023-05-07T12:14:54.614Z,96500.41
2023-05-07T12:17:23.291Z,96497.38
2023-05-07T12:19:53.574Z,96500.31
2023-05-07T12:22:22.334Z,96500.44
2023-05-07T12:24:59.590Z,96504.41
2023-05-07T12:27:28.272Z,96499.06
2023-05-07T12:29:57.005Z,96506.44
2023-05-07T12:32:25.438Z,96495.91
2023-05-07T12:34:54.741Z,96491.94
2023-05-07T12:37:27.901Z,96488.09
2023-05-07T12:40:11.224Z,96497.22
2023-05-07T12:42:41.881Z,96495.34
2023-05-07T12:45:12.471Z,96493.41
2023-05-07T12:47:41.585Z,96482.44
2023-05-07T12:50:10.307Z,96482.69
2023-05-07T12:52:39.388Z,96478.50
2023-05-07T12:55:10.761Z,96478.56
2023-05-07T12:57:41.250Z,96475.63
2023-05-07T13:00:10.789Z,96476.09
2023-05-07T13:02:41.710Z,96475.69
2023-05-07T13:05:10.881Z,96466.44
2023-05-07T13:07:40.142Z,96465.38
2023-05-07T13:10:11.540Z,96462.16
2023-05-07T13:12:40.017Z,96456.75
2023-05-07T13:15:09.477Z,96452.84
2023-05-07T13:17:38.538Z,96448.09
2023-05-07T13:20:09.280Z,96448.47
2023-05-07T13:22:37.973Z,96445.41
2023-05-07T13:25:08.019Z,96456.63
2023-05-07T13:27:38.554Z,96444.25
2023-05-07T13:30:09.615Z,96443.47
2023-05-07T13:32:38.038Z,96449.72
2023-05-07T13:35:08.347Z,96440.91
2023-05-07T13:37:36.816Z,96445.34
2023-05-07T13:40:07.078Z,96433.38
2023-05-07T13:42:35.477Z,96442.03
2023-05-07T13:45:06.161Z,96428.97
2023-05-07T13:47:34.622Z,96434.50
2023-05-07T13:50:04.149Z,96431.84
2023-05-07T13:52:32.662Z,96432.91
2023-05-07T13:55:01.939Z,96432.13
2023-05-07T13:57:30.352Z,96434.06
2023-05-07T13:59:59.506Z,96427.69
2023-05-07T14:02:29.891Z,96430.78
2023-05-07T14:04:58.348Z,96439.56
2023-05-07T14:07:27.594Z,96441.75
2023-05-07T14:09:56.329Z,96436.22
2023-05-07T14:12:25.565Z,96436.34
2023-05-07T14:14:54.353Z,96433.53
2023-05-07T14:17:24.594Z,96440.84
2023-05-07T14:19:55.806Z,96437.88
2023-05-07T14:22:24.782Z,96429.81
2023-05-07T14:25:05.927Z,96438.56
2023-05-07T14:27:36.991Z,96446.41
2023-05-07T14:30:05.866Z,96443.84
2023-05-07T14:32:35.243Z,96441.00
2023-05-07T14:35:05.630Z,96441.94
2023-05-07T14:37:34.990Z,96442.88
2023-05-07T14:40:03.701Z,96444.78
2023-05-07T14:42:32.147Z,96443.63
2023-05-07T14:45:01.326Z,96445.59
2023-05-07T14:47:29.883Z,96439.22
2023-05-07T14:49:59.819Z,96442.69
2023-05-07T14:52:29.557Z,96434.34
2023-05-07T14:54:58.932Z,96445.22
2023-05-07T14:57:27.337Z,96446.38
2023-05-07T14:59:56.103Z,96450.97
2023-05-07T15:02:24.616Z,96447.44
2023-05-07T15:04:53.973Z,96443.47
2023-05-07T15:07:22.311Z,96437.09
2023-05-07T15:09:53.194Z,96436.75
2023-05-07T15:12:22.233Z,96439.13
2023-05-07T15:14:50.612Z,96429.88
2023-05-07T15:17:20.514Z,96440.72
2023-05-07T15:19:48.928Z,96440.13
2023-05-07T15:22:18.394Z,96438.50
2023-05-07T15:24:46.785Z,96442.88
2023-05-07T15:27:18.947Z,96441.44
2023-05-07T15:29:47.437Z,96447.97
2023-05-07T15:32:15.871Z,96439.03
2023-05-07T15:34:45.227Z,96441.34
2023-05-07T15:37:14.716Z,96446.63
2023-05-07T15:39:44.149Z,96440.38
2023-05-07T15:42:12.687Z,96446.38
2023-05-07T15:44:43.746Z,96442.31
2023-05-07T15:47:14.577Z,96440.22
2023-05-07T15:49:44.214Z,96442.03
2023-05-07T15:52:15.020Z,96440.00
2023-05-07T15:54:43.416Z,96451.19
2023-05-07T15:57:12.778Z,96440.63
2023-05-07T15:59:43.436Z,96443.94
2023-05-07T16:02:12.890Z,96442.84
2023-05-07T16:04:42.064Z,96443.81
2023-05-07T16:07:12.991Z,96451.84
2023-05-07T16:09:41.842Z,96445.59
2023-05-07T16:12:12.077Z,96453.78
2023-05-07T16:14:41.779Z,96439.69
2023-05-07T16:17:11.801Z,96447.88
2023-05-07T16:19:40.616Z,96444.63
2023-05-07T16:22:09.048Z,96443.31
2023-05-07T16:24:38.345Z,96449.38
2023-05-07T16:27:07.384Z,96441.22
2023-05-07T16:29:37.347Z,96445.50
2023-05-07T16:32:07.424Z,96446.66
2023-05-07T16:34:37.069Z,96441.13
2023-05-07T16:37:05.778Z,96440.34
2023-05-07T16:39:34.145Z,96445.56
2023-05-07T16:42:03.424Z,96448.66
2023-05-07T16:44:31.754Z,96443.16
2023-05-07T16:47:00.723Z,96445.72
2023-05-07T16:49:30.435Z,96450.78
2023-05-07T16:51:59.310Z,96457.94
2023-05-07T16:54:27.660Z,96430.13
2023-05-07T16:56:56.534Z,96453.03
2023-05-07T16:59:24.919Z,96464.72
2023-05-07T17:01:54.417Z,96457.25
2023-05-07T17:04:24.036Z,96454.00
2023-05-07T17:06:54.513Z,96454.63
2023-05-07T17:09:22.959Z,96460.97
2023-05-07T17:11:51.440Z,96463.59
2023-05-07T17:14:19.862Z,96460.81
2023-05-07T17:16:48.508Z,96472.19
2023-05-07T17:19:16.868Z,96474.31
2023-05-07T17:21:45.291Z,96468.78
2023-05-07T17:24:15.016Z,96481.78
2023-05-07T17:26:43.815Z,96480.16
2023-05-07T17:29:12.164Z,96476.56
2023-05-07T17:31:40.858Z,96480.25
2023-05-07T17:34:09.715Z,96482.00
2023-05-07T17:36:38.218Z,96479.88
2023-05-07T17:39:07.363Z,96484.06
2023-05-07T17:41:38.224Z,96482.75
2023-05-07T17:44:07.084Z,96471.94
2023-05-07T17:46:35.438Z,96483.69
2023-05-07T17:49:04.846Z,96485.63
2023-05-07T17:51:45.919Z,96485.63
2023-05-07T17:54:22.030Z,96485.94
2023-05-07T17:56:52.265Z,96494.03
2023-05-07T17:59:20.783Z,96502.47
2023-05-07T18:01:49.356Z,96502.59
2023-05-07T18:04:19.969Z,96504.34
2023-05-07T18:06:48.551Z,96504.22
2023-05-07T18:09:17.500Z,96499.72
2023-05-07T18:11:46.478Z,96512.19
2023-05-07T18:14:16.311Z,96514.16
2023-05-07T18:16:45.201Z,96515.44
2023-05-07T18:19:14.372Z,96517.53
2023-05-07T18:21:43.288Z,96515.69
2023-05-07T18:24:12.148Z,96519.28
2023-05-07T18:26:41.288Z,96523.47
2023-05-07T18:29:09.715Z,96521.75
2023-05-07T18:31:39.642Z,96523.09
2023-05-07T18:34:10.193Z,96523.72
2023-05-07T18:36:38.578Z,96521.50
2023-05-07T18:39:10.576Z,96524.44
2023-05-07T18:41:39.082Z,96519.69
2023-05-07T18:44:07.709Z,96527.84
2023-05-07T18:46:37.587Z,96535.19
2023-05-07T18:49:07.856Z,96534.88
2023-05-07T18:51:36.870Z,96538.78
2023-05-07T18:54:05.598Z,96535.59
2023-05-07T18:56:34.891Z,96542.09
2023-05-07T18:59:03.230Z,96548.25
2023-05-07T19:01:31.666Z,96549.63
2023-05-07T19:04:00.465Z,96551.34
2023-05-07T19:06:33.155Z,96554.78
2023-05-07T19:09:02.786Z,96552.03
2023-05-07T19:11:31.739Z,96558.16
2023-05-07T19:14:02.963Z,96556.41
2023-05-07T19:16:32.866Z,96549.16
2023-05-07T19:19:01.408Z,96555.69
2023-05-07T19:21:31.651Z,96561.19
2023-05-07T19:24:00.116Z,96560.13
2023-05-07T19:26:28.494Z,96566.09
2023-05-07T19:29:12.154Z,96570.28
2023-05-07T19:31:45.939Z,96568.22
2023-05-07T19:34:14.692Z,96572.59
2023-05-07T19:36:45.047Z,96583.59
2023-05-07T19:39:13.946Z,96574.91
2023-05-07T19:41:42.935Z,96576.53
2023-05-07T19:44:11.364Z,96582.41
2023-05-07T19:46:44.571Z,96586.28
2023-05-07T19:49:13.320Z,96586.34
2023-05-07T19:51:42.211Z,96599.31
2023-05-07T19:54:12.081Z,96601.47
2023-05-07T19:56:41.872Z,96610.94
2023-05-07T19:59:10.412Z,96609.41
2023-05-07T20:01:40.362Z,96607.63
2023-05-07T20:04:08.946Z,96614.09
2023-05-07T20:06:37.374Z,96609.56
2023-05-07T20:09:07.914Z,96617.53
2023-05-07T20:11:38.126Z,96627.19
2023-05-07T20:14:06.932Z,96630.25
2023-05-07T20:16:38.138Z,96634.63
2023-05-07T20:19:06.629Z,96627.09
2023-05-07T20:21:35.488Z,96630.53
2023-05-07T20:24:03.856Z,96635.22
2023-05-07T20:26:32.918Z,96639.09
2023-05-07T20:29:03.409Z,96641.97
2023-05-07T20:31:34.926Z,96651.94
2023-05-07T20:34:03.764Z,96645.22
2023-05-07T20:36:32.643Z,96634.19
2023-05-07T20:39:02.404Z,96638.31
2023-05-07T20:41:30.928Z,96650.84
2023-05-07T20:44:00.812Z,96648.09
2023-05-07T20:46:30.931Z,96650.69
2023-05-07T20:49:00.110Z,96653.81
2023-05-07T20:51:28.482Z,96654.91
2023-05-07T20:53:58.371Z,96662.34
2023-05-07T20:56:26.760Z,96657.41
2023-05-07T20:58:56.430Z,96656.03
2023-05-07T21:01:24.818Z,96667.81
2023-05-07T21:03:55.482Z,96666.28
2023-05-07T21:06:24.475Z,96665.78
2023-05-07T21:08:52.852Z,96661.41
2023-05-07T21:11:22.913Z,96674.50
2023-05-07T21:13:51.904Z,96669.09
2023-05-07T21:16:22.048Z,96675.69
2023-05-07T21:18:50.459Z,96665.34
2023-05-07T21:21:21.800Z,96669.72
2023-05-07T21:23:50.405Z,96664.56
2023-05-07T21:26:19.880Z,96664.88
2023-05-07T21:28:48.349Z,96660.81
2023-05-07T21:31:17.901Z,96666.59
2023-05-07T21:33:46.778Z,96670.97
2023-05-07T21:36:15.190Z,96657.81
2023-05-07T21:38:47.515Z,96665.50
2023-05-07T21:41:15.913Z,96660.56
2023-05-07T21:43:44.761Z,96670.69
2023-05-07T21:46:13.483Z,96671.78
2023-05-07T21:48:41.920Z,96678.06
2023-05-07T21:51:10.290Z,96679.41
2023-05-07T21:53:39.246Z,96678.00
2023-05-07T21:56:09.085Z,96685.94
2023-05-07T21:58:39.313Z,96687.03
2023-05-07T22:01:09.439Z,96685.16
2023-05-07T22:03:38.747Z,96683.56
2023-05-07T22:06:07.910Z,96681.97
2023-05-07T22:08:37.330Z,96683.66
2023-05-07T22:11:05.793Z,96682.53
2023-05-07T22:13:35.844Z,96686.03
2023-05-07T22:16:04.817Z,96686.88
2023-05-07T22:18:33.187Z,96687.97
2023-05-07T22:21:02.450Z,96690.72
2023-05-07T22:23:30.760Z,96694.56
2023-05-07T22:25:59.606Z,96695.94
2023-05-07T22:28:27.966Z,96699.19
2023-05-07T22:30:58.462Z,96697.84
2023-05-07T22:33:26.805Z,96696.25
2023-05-07T22:35:56.106Z,96695.75
2023-05-07T22:38:25.655Z,96691.13
2023-05-07T22:40:54.154Z,96697.44
2023-05-07T22:43:22.924Z,96696.91
2023-05-07T22:45:51.384Z,96696.69
2023-05-07T22:48:22.167Z,96703.03
2023-05-07T22:50:50.583Z,96707.13
2023-05-07T22:53:21.053Z,96701.38
2023-05-07T22:55:49.440Z,96707.66
2023-05-07T22:58:18.738Z,96712.84
2023-05-07T23:00:47.227Z,96701.63
2023-05-07T23:03:16.213Z,96707.13
2023-05-07T23:05:47.024Z,96707.41
2023-05-07T23:08:15.758Z,96715.09
2023-05-07T23:10:45.170Z,96711.78
2023-05-07T23:13:17.162Z,96711.25
2023-05-07T23:15:46.719Z,96710.13
2023-05-07T23:18:15.030Z,96714.50
2023-05-07T23:20:44.754Z,96718.06
2023-05-07T23:23:14.417Z,96718.91
2023-05-07T23:25:43.421Z,96716.16
2023-05-07T23:28:11.753Z,96714.50
2023-05-07T23:30:41.935Z,96709.31
2023-05-07T23:33:10.288Z,96709.59
2023-05-07T23:35:39.653Z,96714.84
2023-05-07T23:38:08.232Z,96717.59
2023-05-07T23:40:39.093Z,96709.06
2023-05-07T23:43:08.269Z,96683.38
2023-05-07T23:45:36.645Z,96709.34
2023-05-07T23:48:06.576Z,96704.72
2023-05-07T23:50:35.233Z,96703.91
2023-05-07T23:53:04.350Z,96710.19
2023-05-07T23:55:32.745Z,96699.78
2023-05-07T23:58:03.318Z,96695.16
